sensor_id;sensor_type;location;lat;lon;timestamp;temperature;humidity
14985;DHT22;7588;62.368;25.902;2022-08-25T00:01:34;14.30;99.90
14985;DHT22;7588;62.368;25.902;2022-08-25T00:04:03;14.20;99.90
14985;DHT22;7588;62.368;25.902;2022-08-25T00:06:30;14.20;99.90
14985;DHT22;7588;62.368;25.902;2022-08-25T00:08:56;14.20;99.90
14985;DHT22;7588;62.368;25.902;2022-08-25T00:11:27;14.20;99.90
14985;DHT22;7588;62.368;25.902;2022-08-25T00:13:57;14.10;99.90
14985;DHT22;7588;62.368;25.902;2022-08-25T00:16:25;14.20;99.90
14985;DHT22;7588;62.368;25.902;2022-08-25T00:18:54;14.20;99.90
14985;DHT22;7588;62.368;25.902;2022-08-25T00:21:21;14.20;99.90
14985;DHT22;7588;62.368;25.902;2022-08-25T00:23:47;14.10;99.90
14985;DHT22;7588;62.368;25.902;2022-08-25T00:26:14;14.00;99.90
14985;DHT22;7588;62.368;25.902;2022-08-25T00:28:41;14.00;99.90
14985;DHT22;7588;62.368;25.902;2022-08-25T00:31:17;14.10;99.90
14985;DHT22;7588;62.368;25.902;2022-08-25T00:33:46;14.00;99.90
14985;DHT22;7588;62.368;25.902;2022-08-25T00:36:13;14.00;99.90
14985;DHT22;7588;62.368;25.902;2022-08-25T00:38:40;13.90;99.90
14985;DHT22;7588;62.368;25.902;2022-08-25T00:41:07;13.90;99.90
14985;DHT22;7588;62.368;25.902;2022-08-25T00:43:45;13.90;99.90
14985;DHT22;7588;62.368;25.902;2022-08-25T00:46:13;13.80;99.90
14985;DHT22;7588;62.368;25.902;2022-08-25T00:48:41;13.80;99.90
14985;DHT22;7588;62.368;25.902;2022-08-25T00:51:10;13.80;99.90
14985;DHT22;7588;62.368;25.902;2022-08-25T00:53:38;13.80;99.90
14985;DHT22;7588;62.368;25.902;2022-08-25T00:56:04;13.80;99.90
14985;DHT22;7588;62.368;25.902;2022-08-25T00:58:31;13.80;99.90
14985;DHT22;7588;62.368;25.902;2022-08-25T01:00:57;13.70;99.90
14985;DHT22;7588;62.368;25.902;2022-08-25T01:03:26;13.80;99.90
14985;DHT22;7588;62.368;25.902;2022-08-25T01:05:53;13.80;99.90
14985;DHT22;7588;62.368;25.902;2022-08-25T01:08:23;13.80;99.90
14985;DHT22;7588;62.368;25.902;2022-08-25T01:10:51;13.80;99.90
14985;DHT22;7588;62.368;25.902;2022-08-25T01:13:25;13.70;99.90
14985;DHT22;7588;62.368;25.902;2022-08-25T01:15:54;13.70;99.90
14985;DHT22;7588;62.368;25.902;2022-08-25T01:18:21;13.60;99.90
14985;DHT22;7588;62.368;25.902;2022-08-25T01:20:55;13.60;99.90
14985;DHT22;7588;62.368;25.902;2022-08-25T01:23:22;13.60;99.90
14985;DHT22;7588;62.368;25.902;2022-08-25T01:26:08;13.60;99.90
14985;DHT22;7588;62.368;25.902;2022-08-25T01:28:34;13.60;99.90
14985;DHT22;7588;62.368;25.902;2022-08-25T01:31:01;13.60;99.90
14985;DHT22;7588;62.368;25.902;2022-08-25T01:33:26;13.60;99.90
14985;DHT22;7588;62.368;25.902;2022-08-25T01:35:53;13.60;99.90
14985;DHT22;7588;62.368;25.902;2022-08-25T01:38:18;13.60;99.90
14985;DHT22;7588;62.368;25.902;2022-08-25T01:40:45;13.50;99.90
14985;DHT22;7588;62.368;25.902;2022-08-25T01:45:44;13.50;99.90
14985;DHT22;7588;62.368;25.902;2022-08-25T01:48:11;13.50;99.90
14985;DHT22;7588;62.368;25.902;2022-08-25T01:50:38;13.50;99.90
14985;DHT22;7588;62.368;25.902;2022-08-25T01:53:26;13.50;99.90
14985;DHT22;7588;62.368;25.902;2022-08-25T01:55:53;13.50;99.90
14985;DHT22;7588;62.368;25.902;2022-08-25T01:58:30;13.50;99.90
14985;DHT22;7588;62.368;25.902;2022-08-25T02:00:59;13.40;99.90
14985;DHT22;7588;62.368;25.902;2022-08-25T02:03:27;13.50;99.90
14985;DHT22;7588;62.368;25.902;2022-08-25T02:05:54;13.40;99.90
14985;DHT22;7588;62.368;25.902;2022-08-25T02:08:21;13.50;99.90
14985;DHT22;7588;62.368;25.902;2022-08-25T02:10:48;13.50;99.90
14985;DHT22;7588;62.368;25.902;2022-08-25T02:13:16;13.40;99.90
14985;DHT22;7588;62.368;25.902;2022-08-25T02:15:43;13.40;99.90
14985;DHT22;7588;62.368;25.902;2022-08-25T02:18:11;13.30;99.90
14985;DHT22;7588;62.368;25.902;2022-08-25T02:20:37;13.40;99.90
14985;DHT22;7588;62.368;25.902;2022-08-25T02:23:03;13.40;99.90
14985;DHT22;7588;62.368;25.902;2022-08-25T02:25:30;13.40;99.90
14985;DHT22;7588;62.368;25.902;2022-08-25T02:27:56;13.40;99.90
14985;DHT22;7588;62.368;25.902;2022-08-25T02:30:22;13.40;99.90
14985;DHT22;7588;62.368;25.902;2022-08-25T02:32:48;13.40;99.90
14985;DHT22;7588;62.368;25.902;2022-08-25T02:35:14;13.40;99.90
14985;DHT22;7588;62.368;25.902;2022-08-25T02:37:40;13.40;99.90
14985;DHT22;7588;62.368;25.902;2022-08-25T02:40:06;13.40;99.90
14985;DHT22;7588;62.368;25.902;2022-08-25T02:42:32;13.30;99.90
14985;DHT22;7588;62.368;25.902;2022-08-25T02:44:58;13.30;99.90
14985;DHT22;7588;62.368;25.902;2022-08-25T02:47:24;13.40;99.90
14985;DHT22;7588;62.368;25.902;2022-08-25T02:49:50;13.40;99.90
14985;DHT22;7588;62.368;25.902;2022-08-25T02:52:17;13.40;99.90
14985;DHT22;7588;62.368;25.902;2022-08-25T02:54:43;13.40;99.90
14985;DHT22;7588;62.368;25.902;2022-08-25T02:57:09;13.40;99.90
14985;DHT22;7588;62.368;25.902;2022-08-25T02:59:36;13.40;99.90
14985;DHT22;7588;62.368;25.902;2022-08-25T03:02:04;13.30;99.90
14985;DHT22;7588;62.368;25.902;2022-08-25T03:04:30;13.30;99.90
14985;DHT22;7588;62.368;25.902;2022-08-25T03:06:56;13.30;99.90
14985;DHT22;7588;62.368;25.902;2022-08-25T03:09:22;13.30;99.90
14985;DHT22;7588;62.368;25.902;2022-08-25T03:11:48;13.30;99.90
14985;DHT22;7588;62.368;25.902;2022-08-25T03:14:14;13.30;99.90
14985;DHT22;7588;62.368;25.902;2022-08-25T03:16:40;13.30;99.90
14985;DHT22;7588;62.368;25.902;2022-08-25T03:19:07;13.30;99.90
14985;DHT22;7588;62.368;25.902;2022-08-25T03:21:33;13.20;99.90
14985;DHT22;7588;62.368;25.902;2022-08-25T03:23:59;13.20;99.90
14985;DHT22;7588;62.368;25.902;2022-08-25T03:26:25;13.20;99.90
14985;DHT22;7588;62.368;25.902;2022-08-25T03:29:09;13.20;99.90
14985;DHT22;7588;62.368;25.902;2022-08-25T03:31:35;13.30;99.90
14985;DHT22;7588;62.368;25.902;2022-08-25T03:34:01;13.40;99.90
14985;DHT22;7588;62.368;25.902;2022-08-25T03:36:27;13.40;99.90
14985;DHT22;7588;62.368;25.902;2022-08-25T03:38:53;13.40;99.90
14985;DHT22;7588;62.368;25.902;2022-08-25T03:41:26;13.40;99.90
14985;DHT22;7588;62.368;25.902;2022-08-25T03:43:58;13.40;99.90
14985;DHT22;7588;62.368;25.902;2022-08-25T03:46:48;13.40;99.90
14985;DHT22;7588;62.368;25.902;2022-08-25T03:49:19;13.40;99.90
14985;DHT22;7588;62.368;25.902;2022-08-25T03:51:49;13.40;99.90
14985;DHT22;7588;62.368;25.902;2022-08-25T03:54:19;13.30;99.90
14985;DHT22;7588;62.368;25.902;2022-08-25T03:56:45;13.30;99.90
14985;DHT22;7588;62.368;25.902;2022-08-25T03:59:11;13.40;99.90
14985;DHT22;7588;62.368;25.902;2022-08-25T04:01:38;13.50;99.90
14985;DHT22;7588;62.368;25.902;2022-08-25T04:04:05;13.40;99.90
14985;DHT22;7588;62.368;25.902;2022-08-25T04:06:31;13.50;99.90
14985;DHT22;7588;62.368;25.902;2022-08-25T04:08:57;13.50;99.90
14985;DHT22;7588;62.368;25.902;2022-08-25T04:11:24;13.50;99.90
14985;DHT22;7588;62.368;25.902;2022-08-25T04:13:54;13.50;99.90
14985;DHT22;7588;62.368;25.902;2022-08-25T04:16:25;13.50;99.90
14985;DHT22;7588;62.368;25.902;2022-08-25T04:18:54;13.60;99.90
14985;DHT22;7588;62.368;25.902;2022-08-25T04:21:22;13.60;99.90
14985;DHT22;7588;62.368;25.902;2022-08-25T04:23:49;13.50;99.90
14985;DHT22;7588;62.368;25.902;2022-08-25T04:28:46;13.70;99.90
14985;DHT22;7588;62.368;25.902;2022-08-25T04:31:14;13.70;99.90
14985;DHT22;7588;62.368;25.902;2022-08-25T04:33:40;13.60;99.90
14985;DHT22;7588;62.368;25.902;2022-08-25T04:36:09;13.70;99.90
14985;DHT22;7588;62.368;25.902;2022-08-25T04:38:37;13.70;99.90
14985;DHT22;7588;62.368;25.902;2022-08-25T04:41:05;13.70;99.90
14985;DHT22;7588;62.368;25.902;2022-08-25T04:43:32;13.70;99.90
14985;DHT22;7588;62.368;25.902;2022-08-25T04:45:58;13.70;99.90
14985;DHT22;7588;62.368;25.902;2022-08-25T04:48:25;13.80;99.90
14985;DHT22;7588;62.368;25.902;2022-08-25T04:50:50;13.80;99.90
14985;DHT22;7588;62.368;25.902;2022-08-25T04:53:17;13.90;99.90
14985;DHT22;7588;62.368;25.902;2022-08-25T04:55:45;13.90;99.90
14985;DHT22;7588;62.368;25.902;2022-08-25T04:58:13;13.90;99.90
14985;DHT22;7588;62.368;25.902;2022-08-25T05:00:39;14.00;99.90
14985;DHT22;7588;62.368;25.902;2022-08-25T05:03:06;14.00;99.90
14985;DHT22;7588;62.368;25.902;2022-08-25T05:05:35;14.10;99.90
14985;DHT22;7588;62.368;25.902;2022-08-25T05:08:01;14.10;99.90
14985;DHT22;7588;62.368;25.902;2022-08-25T05:10:27;14.20;99.90
14985;DHT22;7588;62.368;25.902;2022-08-25T05:12:53;14.20;99.90
14985;DHT22;7588;62.368;25.902;2022-08-25T05:15:19;14.30;99.90
14985;DHT22;7588;62.368;25.902;2022-08-25T05:18:03;14.30;99.90
14985;DHT22;7588;62.368;25.902;2022-08-25T05:20:29;14.30;99.90
14985;DHT22;7588;62.368;25.902;2022-08-25T05:22:56;14.30;99.90
14985;DHT22;7588;62.368;25.902;2022-08-25T05:25:22;14.30;99.90
14985;DHT22;7588;62.368;25.902;2022-08-25T05:27:48;14.30;99.90
14985;DHT22;7588;62.368;25.902;2022-08-25T05:30:14;14.10;99.90
14985;DHT22;7588;62.368;25.902;2022-08-25T05:32:39;14.10;99.90
14985;DHT22;7588;62.368;25.902;2022-08-25T05:35:06;14.10;99.90
14985;DHT22;7588;62.368;25.902;2022-08-25T05:37:32;14.10;99.90
14985;DHT22;7588;62.368;25.902;2022-08-25T05:39:58;14.10;99.90
14985;DHT22;7588;62.368;25.902;2022-08-25T05:42:25;14.10;99.90
14985;DHT22;7588;62.368;25.902;2022-08-25T05:44:52;14.10;99.90
14985;DHT22;7588;62.368;25.902;2022-08-25T05:47:18;14.20;99.90
14985;DHT22;7588;62.368;25.902;2022-08-25T05:49:44;14.30;99.90
14985;DHT22;7588;62.368;25.902;2022-08-25T05:52:10;14.40;99.90
14985;DHT22;7588;62.368;25.902;2022-08-25T05:54:36;14.50;99.90
14985;DHT22;7588;62.368;25.902;2022-08-25T05:57:03;14.50;99.90
14985;DHT22;7588;62.368;25.902;2022-08-25T05:59:29;14.60;99.90
14985;DHT22;7588;62.368;25.902;2022-08-25T06:01:55;14.60;99.90
14985;DHT22;7588;62.368;25.902;2022-08-25T06:04:39;14.60;99.90
14985;DHT22;7588;62.368;25.902;2022-08-25T06:07:05;14.70;99.90
14985;DHT22;7588;62.368;25.902;2022-08-25T06:09:31;14.60;99.90
14985;DHT22;7588;62.368;25.902;2022-08-25T06:11:56;14.60;99.90
14985;DHT22;7588;62.368;25.902;2022-08-25T06:14:23;14.60;99.90
14985;DHT22;7588;62.368;25.902;2022-08-25T06:16:48;14.80;99.90
14985;DHT22;7588;62.368;25.902;2022-08-25T06:19:16;14.90;99.90
14985;DHT22;7588;62.368;25.902;2022-08-25T06:21:42;15.20;99.90
14985;DHT22;7588;62.368;25.902;2022-08-25T06:24:09;15.30;99.90
14985;DHT22;7588;62.368;25.902;2022-08-25T06:26:36;15.50;99.90
14985;DHT22;7588;62.368;25.902;2022-08-25T06:29:02;15.50;99.90
14985;DHT22;7588;62.368;25.902;2022-08-25T06:31:28;15.50;99.90
14985;DHT22;7588;62.368;25.902;2022-08-25T06:33:54;15.60;99.90
14985;DHT22;7588;62.368;25.902;2022-08-25T06:36:20;15.70;99.90
14985;DHT22;7588;62.368;25.902;2022-08-25T06:38:47;15.60;99.90
14985;DHT22;7588;62.368;25.902;2022-08-25T06:41:13;15.60;99.90
14985;DHT22;7588;62.368;25.902;2022-08-25T06:43:40;15.60;99.90
14985;DHT22;7588;62.368;25.902;2022-08-25T06:46:18;15.60;99.90
14985;DHT22;7588;62.368;25.902;2022-08-25T06:48:44;15.80;99.90
14985;DHT22;7588;62.368;25.902;2022-08-25T06:51:12;16.10;99.90
14985;DHT22;7588;62.368;25.902;2022-08-25T06:53:38;16.40;99.90
14985;DHT22;7588;62.368;25.902;2022-08-25T06:56:05;16.30;99.90
14985;DHT22;7588;62.368;25.902;2022-08-25T06:58:31;16.30;99.90
14985;DHT22;7588;62.368;25.902;2022-08-25T07:01:24;16.30;99.90
14985;DHT22;7588;62.368;25.902;2022-08-25T07:03:56;16.20;99.90
14985;DHT22;7588;62.368;25.902;2022-08-25T07:06:23;16.20;99.90
14985;DHT22;7588;62.368;25.902;2022-08-25T07:08:49;16.00;99.90
14985;DHT22;7588;62.368;25.902;2022-08-25T07:11:15;16.00;99.90
14985;DHT22;7588;62.368;25.902;2022-08-25T07:13:42;16.20;99.90
14985;DHT22;7588;62.368;25.902;2022-08-25T07:16:08;16.50;99.90
14985;DHT22;7588;62.368;25.902;2022-08-25T07:18:36;16.60;99.90
14985;DHT22;7588;62.368;25.902;2022-08-25T07:21:02;16.80;99.90
14985;DHT22;7588;62.368;25.902;2022-08-25T07:23:27;17.00;99.90
14985;DHT22;7588;62.368;25.902;2022-08-25T07:25:54;17.40;99.90
14985;DHT22;7588;62.368;25.902;2022-08-25T07:28:21;18.10;99.90
14985;DHT22;7588;62.368;25.902;2022-08-25T07:30:48;19.00;99.90
14985;DHT22;7588;62.368;25.902;2022-08-25T07:33:13;19.50;99.90
14985;DHT22;7588;62.368;25.902;2022-08-25T07:35:39;20.10;99.90
14985;DHT22;7588;62.368;25.902;2022-08-25T07:38:06;20.50;99.90
14985;DHT22;7588;62.368;25.902;2022-08-25T07:40:34;21.10;99.90
14985;DHT22;7588;62.368;25.902;2022-08-25T07:43:05;21.80;99.90
14985;DHT22;7588;62.368;25.902;2022-08-25T07:45:36;22.10;99.90
14985;DHT22;7588;62.368;25.902;2022-08-25T07:48:05;22.40;99.90
14985;DHT22;7588;62.368;25.902;2022-08-25T07:50:33;23.00;99.90
14985;DHT22;7588;62.368;25.902;2022-08-25T07:52:59;23.30;99.90
14985;DHT22;7588;62.368;25.902;2022-08-25T07:55:26;23.30;99.90
14985;DHT22;7588;62.368;25.902;2022-08-25T07:57:54;23.20;98.80
14985;DHT22;7588;62.368;25.902;2022-08-25T08:00:21;23.30;99.40
14985;DHT22;7588;62.368;25.902;2022-08-25T08:02:47;23.60;99.70
14985;DHT22;7588;62.368;25.902;2022-08-25T08:05:13;23.40;99.60
14985;DHT22;7588;62.368;25.902;2022-08-25T08:07:39;23.60;97.80
14985;DHT22;7588;62.368;25.902;2022-08-25T08:10:07;23.60;98.50
14985;DHT22;7588;62.368;25.902;2022-08-25T08:12:34;23.20;99.20
14985;DHT22;7588;62.368;25.902;2022-08-25T08:15:01;23.50;99.90
14985;DHT22;7588;62.368;25.902;2022-08-25T08:17:27;23.70;97.50
14985;DHT22;7588;62.368;25.902;2022-08-25T08:19:52;23.40;96.90
14985;DHT22;7588;62.368;25.902;2022-08-25T08:22:18;23.50;98.60
14985;DHT22;7588;62.368;25.902;2022-08-25T08:24:45;23.50;97.80
14985;DHT22;7588;62.368;25.902;2022-08-25T08:27:12;23.40;97.80
14985;DHT22;7588;62.368;25.902;2022-08-25T08:29:39;23.60;98.00
14985;DHT22;7588;62.368;25.902;2022-08-25T08:32:09;23.70;97.60
14985;DHT22;7588;62.368;25.902;2022-08-25T08:34:35;23.70;97.60
14985;DHT22;7588;62.368;25.902;2022-08-25T08:37:01;23.60;98.20
14985;DHT22;7588;62.368;25.902;2022-08-25T08:39:28;23.80;99.30
14985;DHT22;7588;62.368;25.902;2022-08-25T08:44:48;23.70;98.00
14985;DHT22;7588;62.368;25.902;2022-08-25T08:53:22;23.40;96.40
14985;DHT22;7588;62.368;25.902;2022-08-25T08:56:00;23.30;97.80
14985;DHT22;7588;62.368;25.902;2022-08-25T08:58:40;23.30;97.40
14985;DHT22;7588;62.368;25.902;2022-08-25T09:01:09;23.20;98.20
14985;DHT22;7588;62.368;25.902;2022-08-25T09:03:43;23.50;97.10
14985;DHT22;7588;62.368;25.902;2022-08-25T09:06:16;23.70;97.20
14985;DHT22;7588;62.368;25.902;2022-08-25T09:08:42;23.60;95.90
14985;DHT22;7588;62.368;25.902;2022-08-25T09:14:52;23.00;97.50
14985;DHT22;7588;62.368;25.902;2022-08-25T09:17:24;23.30;99.10
14985;DHT22;7588;62.368;25.902;2022-08-25T09:20:07;23.70;97.30
14985;DHT22;7588;62.368;25.902;2022-08-25T09:25:44;23.90;95.60
14985;DHT22;7588;62.368;25.902;2022-08-25T09:28:30;24.10;96.10
14985;DHT22;7588;62.368;25.902;2022-08-25T09:31:01;24.10;96.20
14985;DHT22;7588;62.368;25.902;2022-08-25T09:33:29;24.20;95.80
14985;DHT22;7588;62.368;25.902;2022-08-25T09:35:56;24.30;94.10
14985;DHT22;7588;62.368;25.902;2022-08-25T09:38:23;24.10;94.50
14985;DHT22;7588;62.368;25.902;2022-08-25T09:40:54;24.30;95.60
14985;DHT22;7588;62.368;25.902;2022-08-25T09:46:18;24.60;94.80
14985;DHT22;7588;62.368;25.902;2022-08-25T09:48:52;24.90;93.30
14985;DHT22;7588;62.368;25.902;2022-08-25T09:59:24;24.30;94.40
14985;DHT22;7588;62.368;25.902;2022-08-25T10:01:54;24.10;93.70
14985;DHT22;7588;62.368;25.902;2022-08-25T10:04:31;24.00;94.40
14985;DHT22;7588;62.368;25.902;2022-08-25T10:07:00;24.00;93.70
14985;DHT22;7588;62.368;25.902;2022-08-25T10:09:38;23.70;94.60
14985;DHT22;7588;62.368;25.902;2022-08-25T10:12:20;23.70;95.40
14985;DHT22;7588;62.368;25.902;2022-08-25T10:14:47;23.60;94.20
14985;DHT22;7588;62.368;25.902;2022-08-25T10:17:30;23.50;93.90
14985;DHT22;7588;62.368;25.902;2022-08-25T10:22:34;24.10;94.30
14985;DHT22;7588;62.368;25.902;2022-08-25T10:25:02;24.20;93.00
14985;DHT22;7588;62.368;25.902;2022-08-25T10:39:00;25.00;92.70
14985;DHT22;7588;62.368;25.902;2022-08-25T10:42:06;25.20;92.20
14985;DHT22;7588;62.368;25.902;2022-08-25T10:56:11;25.40;91.70
14985;DHT22;7588;62.368;25.902;2022-08-25T11:01:15;25.70;90.70
14985;DHT22;7588;62.368;25.902;2022-08-25T11:03:54;25.30;91.60
14985;DHT22;7588;62.368;25.902;2022-08-25T11:06:43;24.90;91.00
14985;DHT22;7588;62.368;25.902;2022-08-25T11:09:17;24.20;91.60
14985;DHT22;7588;62.368;25.902;2022-08-25T11:11:58;23.60;93.60
14985;DHT22;7588;62.368;25.902;2022-08-25T11:14:36;23.20;94.20
14985;DHT22;7588;62.368;25.902;2022-08-25T11:17:22;23.10;93.90
14985;DHT22;7588;62.368;25.902;2022-08-25T11:19:52;23.00;93.60
14985;DHT22;7588;62.368;25.902;2022-08-25T11:22:40;23.00;95.90
14985;DHT22;7588;62.368;25.902;2022-08-25T11:30:25;23.20;94.90
14985;DHT22;7588;62.368;25.902;2022-08-25T11:32:52;23.30;95.40
14985;DHT22;7588;62.368;25.902;2022-08-25T11:35:30;23.20;94.20
14985;DHT22;7588;62.368;25.902;2022-08-25T11:41:00;22.80;96.60
14985;DHT22;7588;62.368;25.902;2022-08-25T11:51:47;23.90;93.90
14985;DHT22;7588;62.368;25.902;2022-08-25T11:54:26;23.90;92.90
14985;DHT22;7588;62.368;25.902;2022-08-25T11:57:02;24.50;94.20
14985;DHT22;7588;62.368;25.902;2022-08-25T12:02:43;24.80;92.20
14985;DHT22;7588;62.368;25.902;2022-08-25T12:07:59;25.10;91.50
14985;DHT22;7588;62.368;25.902;2022-08-25T12:11:04;25.40;92.20
14985;DHT22;7588;62.368;25.902;2022-08-25T12:13:47;25.40;90.70
14985;DHT22;7588;62.368;25.902;2022-08-25T12:27:37;25.10;92.80
14985;DHT22;7588;62.368;25.902;2022-08-25T12:30:23;24.90;91.80
14985;DHT22;7588;62.368;25.902;2022-08-25T12:35:58;24.00;93.40
14985;DHT22;7588;62.368;25.902;2022-08-25T12:41:11;22.80;96.00
14985;DHT22;7588;62.368;25.902;2022-08-25T12:43:40;23.00;95.40
14985;DHT22;7588;62.368;25.902;2022-08-25T12:57:01;24.80;92.20
14985;DHT22;7588;62.368;25.902;2022-08-25T12:59:36;25.00;91.30
14985;DHT22;7588;62.368;25.902;2022-08-25T13:02:47;25.40;91.00
14985;DHT22;7588;62.368;25.902;2022-08-25T13:10:50;25.80;91.40
14985;DHT22;7588;62.368;25.902;2022-08-25T13:16:15;25.80;90.50
14985;DHT22;7588;62.368;25.902;2022-08-25T13:18:42;25.50;90.30
14985;DHT22;7588;62.368;25.902;2022-08-25T13:21:22;24.70;90.60
14985;DHT22;7588;62.368;25.902;2022-08-25T13:23:59;24.10;91.80
14985;DHT22;7588;62.368;25.902;2022-08-25T13:26:32;23.70;93.10
14985;DHT22;7588;62.368;25.902;2022-08-25T13:29:12;23.40;93.50
14985;DHT22;7588;62.368;25.902;2022-08-25T13:34:21;22.20;96.10
14985;DHT22;7588;62.368;25.902;2022-08-25T13:36:48;21.90;96.50
14985;DHT22;7588;62.368;25.902;2022-08-25T13:39:33;21.60;97.00
14985;DHT22;7588;62.368;25.902;2022-08-25T13:42:01;21.70;96.20
14985;DHT22;7588;62.368;25.902;2022-08-25T13:44:29;21.70;95.40
14985;DHT22;7588;62.368;25.902;2022-08-25T13:47:14;21.50;96.20
14985;DHT22;7588;62.368;25.902;2022-08-25T13:49:45;21.60;96.50
14985;DHT22;7588;62.368;25.902;2022-08-25T13:52:26;21.70;96.30
14985;DHT22;7588;62.368;25.902;2022-08-25T13:54:58;21.70;97.40
14985;DHT22;7588;62.368;25.902;2022-08-25T13:57:27;21.70;95.90
14985;DHT22;7588;62.368;25.902;2022-08-25T14:00:04;21.50;96.20
14985;DHT22;7588;62.368;25.902;2022-08-25T14:05:05;21.30;98.40
14985;DHT22;7588;62.368;25.902;2022-08-25T14:07:31;21.30;97.80
14985;DHT22;7588;62.368;25.902;2022-08-25T14:10:18;21.30;95.80
14985;DHT22;7588;62.368;25.902;2022-08-25T14:13:29;21.20;96.30
14985;DHT22;7588;62.368;25.902;2022-08-25T14:16:11;21.30;96.70
14985;DHT22;7588;62.368;25.902;2022-08-25T14:18:38;21.30;96.70
14985;DHT22;7588;62.368;25.902;2022-08-25T14:21:10;21.20;96.70
14985;DHT22;7588;62.368;25.902;2022-08-25T14:23:37;21.00;97.00
14985;DHT22;7588;62.368;25.902;2022-08-25T14:26:03;20.80;96.60
14985;DHT22;7588;62.368;25.902;2022-08-25T14:28:30;20.60;98.80
14985;DHT22;7588;62.368;25.902;2022-08-25T14:31:03;20.40;98.20
14985;DHT22;7588;62.368;25.902;2022-08-25T14:33:37;20.40;98.90
14985;DHT22;7588;62.368;25.902;2022-08-25T14:36:05;20.40;99.20
14985;DHT22;7588;62.368;25.902;2022-08-25T14:38:31;20.40;98.80
14985;DHT22;7588;62.368;25.902;2022-08-25T14:40:58;20.40;98.40
14985;DHT22;7588;62.368;25.902;2022-08-25T14:43:24;20.30;98.40
14985;DHT22;7588;62.368;25.902;2022-08-25T14:45:50;20.20;99.20
14985;DHT22;7588;62.368;25.902;2022-08-25T14:48:23;20.10;99.90
14985;DHT22;7588;62.368;25.902;2022-08-25T14:50:50;20.00;99.50
14985;DHT22;7588;62.368;25.902;2022-08-25T14:53:16;20.00;99.10
14985;DHT22;7588;62.368;25.902;2022-08-25T14:55:42;19.90;99.90
14985;DHT22;7588;62.368;25.902;2022-08-25T14:58:07;19.90;99.90
14985;DHT22;7588;62.368;25.902;2022-08-25T15:00:41;19.90;99.10
14985;DHT22;7588;62.368;25.902;2022-08-25T15:03:07;19.70;99.20
14985;DHT22;7588;62.368;25.902;2022-08-25T15:05:34;19.70;99.80
14985;DHT22;7588;62.368;25.902;2022-08-25T15:08:00;19.70;99.90
14985;DHT22;7588;62.368;25.902;2022-08-25T15:10:44;19.60;99.90
14985;DHT22;7588;62.368;25.902;2022-08-25T15:13:11;19.50;99.50
14985;DHT22;7588;62.368;25.902;2022-08-25T15:15:39;19.60;99.90
14985;DHT22;7588;62.368;25.902;2022-08-25T15:18:08;19.50;99.90
14985;DHT22;7588;62.368;25.902;2022-08-25T15:20:33;19.30;99.90
14985;DHT22;7588;62.368;25.902;2022-08-25T15:22:59;19.30;99.90
14985;DHT22;7588;62.368;25.902;2022-08-25T15:25:25;19.30;99.90
14985;DHT22;7588;62.368;25.902;2022-08-25T15:27:51;19.20;99.90
14985;DHT22;7588;62.368;25.902;2022-08-25T15:30:18;19.20;99.90
14985;DHT22;7588;62.368;25.902;2022-08-25T15:32:44;19.10;99.90
14985;DHT22;7588;62.368;25.902;2022-08-25T15:35:10;19.10;99.90
14985;DHT22;7588;62.368;25.902;2022-08-25T15:37:37;19.10;99.90
14985;DHT22;7588;62.368;25.902;2022-08-25T15:40:04;19.10;99.90
14985;DHT22;7588;62.368;25.902;2022-08-25T15:42:30;19.00;99.90
14985;DHT22;7588;62.368;25.902;2022-08-25T15:44:56;19.00;99.90
14985;DHT22;7588;62.368;25.902;2022-08-25T15:47:22;18.90;99.90
14985;DHT22;7588;62.368;25.902;2022-08-25T15:50:02;18.90;99.90
14985;DHT22;7588;62.368;25.902;2022-08-25T15:52:29;18.70;99.90
14985;DHT22;7588;62.368;25.902;2022-08-25T15:54:54;18.60;99.90
14985;DHT22;7588;62.368;25.902;2022-08-25T15:57:21;18.50;99.90
14985;DHT22;7588;62.368;25.902;2022-08-25T15:59:47;18.50;99.90
14985;DHT22;7588;62.368;25.902;2022-08-25T16:02:12;18.40;99.90
14985;DHT22;7588;62.368;25.902;2022-08-25T16:04:38;18.30;99.90
14985;DHT22;7588;62.368;25.902;2022-08-25T16:07:04;18.20;99.90
14985;DHT22;7588;62.368;25.902;2022-08-25T16:09:30;18.10;99.90
14985;DHT22;7588;62.368;25.902;2022-08-25T16:11:55;18.00;99.90
14985;DHT22;7588;62.368;25.902;2022-08-25T16:14:21;17.90;99.90
14985;DHT22;7588;62.368;25.902;2022-08-25T16:16:47;17.90;99.90
14985;DHT22;7588;62.368;25.902;2022-08-25T16:19:13;17.80;99.90
14985;DHT22;7588;62.368;25.902;2022-08-25T16:21:39;17.70;99.90
14985;DHT22;7588;62.368;25.902;2022-08-25T16:24:06;17.60;99.90
14985;DHT22;7588;62.368;25.902;2022-08-25T16:26:33;17.50;99.90
14985;DHT22;7588;62.368;25.902;2022-08-25T16:29:01;17.40;99.90
14985;DHT22;7588;62.368;25.902;2022-08-25T16:31:27;17.40;99.90
14985;DHT22;7588;62.368;25.902;2022-08-25T16:33:53;17.20;99.90
14985;DHT22;7588;62.368;25.902;2022-08-25T16:36:21;17.20;99.90
14985;DHT22;7588;62.368;25.902;2022-08-25T16:38:47;17.00;99.90
14985;DHT22;7588;62.368;25.902;2022-08-25T16:41:19;16.90;99.90
14985;DHT22;7588;62.368;25.902;2022-08-25T16:43:45;16.90;99.90
14985;DHT22;7588;62.368;25.902;2022-08-25T16:46:13;16.70;99.90
14985;DHT22;7588;62.368;25.902;2022-08-25T16:48:40;16.60;99.90
14985;DHT22;7588;62.368;25.902;2022-08-25T16:51:08;16.60;99.90
14985;DHT22;7588;62.368;25.902;2022-08-25T16:53:34;16.50;99.90
14985;DHT22;7588;62.368;25.902;2022-08-25T16:56:19;16.40;99.90
14985;DHT22;7588;62.368;25.902;2022-08-25T16:58:54;16.30;99.90
14985;DHT22;7588;62.368;25.902;2022-08-25T17:01:21;16.30;99.90
14985;DHT22;7588;62.368;25.902;2022-08-25T17:03:50;16.20;99.90
14985;DHT22;7588;62.368;25.902;2022-08-25T17:06:16;16.10;99.90
14985;DHT22;7588;62.368;25.902;2022-08-25T17:08:42;16.00;99.90
14985;DHT22;7588;62.368;25.902;2022-08-25T17:11:12;15.90;99.90
14985;DHT22;7588;62.368;25.902;2022-08-25T17:13:47;15.90;99.90
14985;DHT22;7588;62.368;25.902;2022-08-25T17:16:14;15.80;99.90
14985;DHT22;7588;62.368;25.902;2022-08-25T17:18:41;15.70;99.90
14985;DHT22;7588;62.368;25.902;2022-08-25T17:21:09;15.60;99.90
14985;DHT22;7588;62.368;25.902;2022-08-25T17:23:38;15.50;99.90
14985;DHT22;7588;62.368;25.902;2022-08-25T17:26:04;15.40;99.90
14985;DHT22;7588;62.368;25.902;2022-08-25T17:28:31;15.30;99.90
14985;DHT22;7588;62.368;25.902;2022-08-25T17:30:57;15.20;99.90
14985;DHT22;7588;62.368;25.902;2022-08-25T17:33:24;15.10;99.90
14985;DHT22;7588;62.368;25.902;2022-08-25T17:35:52;15.00;99.90
14985;DHT22;7588;62.368;25.902;2022-08-25T17:38:20;14.90;99.90
14985;DHT22;7588;62.368;25.902;2022-08-25T17:40:57;14.70;99.90
14985;DHT22;7588;62.368;25.902;2022-08-25T17:43:24;14.70;99.90
14985;DHT22;7588;62.368;25.902;2022-08-25T17:45:51;14.60;99.90
14985;DHT22;7588;62.368;25.902;2022-08-25T17:48:18;14.50;99.90